Accueil
METAR-TAF:

METAR-TAF

Aéroports :

Londres-Southend, Angleterre

Aéroport de Londres-Southend

latitude: 51-34N, longitude: 000-42E, altitude: 15 m

Observation

Le bulletin a été fait il y a 29 minutes, à 21:20 UTC
Vent 10 kt de sud-ouest
Température 10°C
Humidité 71%
Pression 1022 hPa
Visibilité 10 km ou plus
Quelques nuages à une hauteur de 4800 ft

METAR: EGMC 232120Z 22010KT 9999 FEW048 10/05 Q1022

Heure: 22:49 (21:49 UTC)

Prévision

Le bulletin a été fait il y a 1 heure et 56 minutes, à 19:53 UTC
Prévision valable du 23 à 21 UTC au 24 à 06 UTC
Vent 9 kt de sud/sud-ouest
Visibilité 10 km ou plus
Quelques nuages à une hauteur de 4000 ft

TAF: EGMC 231953Z 2321/2406 21009KT 9999 FEW040

Observations et prévisions météorologiques de plus de 4000 aéroports (messages METAR et TAF).

Les stations disponibles sont représentées par des disques jaunes et rouges sur la carte.

Passer la souris dessus pour voir le nom de la station.

Cliquer dessus pour voir les observations et prévisions météorologiques.

Pour changer de carte: cliquez sur les boutons verts avec une croix noire pour zoomer, sur le bouton vert avec un tiret pour effectuer un zoom arrière, ou sur les flèches vertes pour les cartes adjacentes.


METAR-TAF: